Terminal Aerodrome Forecast
Issued by NWS

Home | Current Version | Previous Version | Text Only | Print | Product List | Glossary On
Versions: 1 2 3 4 5 6 7 8 9 10 11 12 13 14 15 16
000
FTUS42 KTBW 060540
TAFRSW
TAF
KRSW 060540Z 0606/0706 03004KT P6SM SCT080 BKN250
     FM061500 03008KT P6SM SCT035 SCT250
     FM062100 30011KT P6SM SCT050 SCT250
     FM070100 36006KT P6SM SCT250=

USA.gov is the U.S. government's official web portal to all federal, state and local government web resources and services.